createdAt,value
2022-09-10T00:01:59.372Z,79.50
2022-09-10T00:04:26.662Z,79.70
2022-09-10T00:06:53.460Z,79.10
2022-09-10T00:09:20.195Z,78.70
2022-09-10T00:11:46.919Z,79.00
2022-09-10T00:14:21.787Z,79.70
2022-09-10T00:16:49.507Z,80.00
2022-09-10T00:19:16.828Z,79.60
2022-09-10T00:21:44.468Z,79.40
2022-09-10T00:24:11.457Z,79.50
2022-09-10T00:26:39.347Z,79.50
2022-09-10T00:29:09.314Z,79.70
2022-09-10T00:31:37.219Z,79.00
2022-09-10T00:34:05.638Z,78.80
2022-09-10T00:36:36.496Z,79.30
2022-09-10T00:39:10.703Z,78.80
2022-09-10T00:41:39.215Z,79.20
2022-09-10T00:44:27.730Z,78.80
2022-09-10T00:46:55.584Z,79.50
2022-09-10T00:49:35.759Z,79.00
2022-09-10T00:52:03.247Z,78.70
2022-09-10T00:54:31.882Z,78.50
2022-09-10T00:57:07.592Z,78.20
2022-09-10T00:59:35.661Z,79.00
2022-09-10T01:02:02.703Z,78.70
2022-09-10T01:04:29.555Z,79.00
2022-09-10T01:06:56.760Z,77.70
2022-09-10T01:09:25.093Z,78.30
2022-09-10T01:12:08.796Z,78.70
2022-09-10T01:15:02.442Z,78.30
2022-09-10T01:17:49.885Z,78.60
2022-09-10T01:20:44.513Z,78.40
2022-09-10T01:23:32.772Z,79.00
2022-09-10T01:26:11.914Z,79.10
2022-09-10T01:29:01.119Z,79.30
2022-09-10T01:31:32.969Z,78.90
2022-09-10T01:34:13.520Z,78.80
2022-09-10T01:36:45.139Z,78.70
2022-09-10T01:39:12.287Z,79.10
2022-09-10T01:41:39.560Z,78.40
2022-09-10T01:44:11.366Z,78.40
2022-09-10T01:47:06.131Z,78.40
2022-09-10T01:49:42.415Z,78.40
2022-09-10T01:52:47.789Z,78.80
2022-09-10T01:55:31.132Z,79.80
2022-09-10T01:58:11.862Z,79.60
2022-09-10T02:00:52.273Z,80.50
2022-09-10T02:03:23.795Z,79.90
2022-09-10T02:05:54.583Z,80.20
2022-09-10T02:08:35.147Z,79.50
2022-09-10T02:11:06.362Z,79.10
2022-09-10T02:13:36.488Z,79.30
2022-09-10T02:16:31.091Z,79.20
2022-09-10T02:18:59.885Z,78.70
2022-09-10T02:21:27.023Z,79.00
2022-09-10T02:23:57.023Z,79.00
2022-09-10T02:26:25.822Z,79.60
2022-09-10T02:28:54.491Z,79.10
2022-09-10T02:31:21.697Z,79.30
2022-09-10T02:33:49.149Z,79.50
2022-09-10T02:36:15.780Z,79.20
2022-09-10T02:38:42.457Z,79.70
2022-09-10T02:41:09.676Z,80.90
2022-09-10T02:43:38.195Z,80.90
2022-09-10T02:46:08.737Z,80.10
2022-09-10T02:48:37.263Z,79.60
2022-09-10T02:51:04.545Z,79.70
2022-09-10T02:53:31.831Z,80.20
2022-09-10T02:56:04.993Z,79.80
2022-09-10T02:58:31.902Z,79.90
2022-09-10T03:01:28.632Z,80.50
2022-09-10T03:04:00.942Z,80.30
2022-09-10T03:06:29.501Z,80.40
2022-09-10T03:08:57.545Z,80.60
2022-09-10T03:11:27.353Z,80.40
2022-09-10T03:13:54.848Z,80.30
2022-09-10T03:16:23.922Z,79.80
2022-09-10T03:18:52.013Z,79.60
2022-09-10T03:21:20.913Z,79.90
2022-09-10T03:23:50.630Z,80.10
2022-09-10T03:26:25.191Z,80.30
2022-09-10T03:28:52.518Z,79.90
2022-09-10T03:31:21.741Z,80.10
2022-09-10T03:33:51.110Z,80.30
2022-09-10T03:36:18.229Z,80.50
2022-09-10T03:38:46.179Z,80.00
2022-09-10T03:41:12.894Z,79.80
2022-09-10T03:43:39.676Z,79.50
2022-09-10T03:46:11.844Z,80.10
2022-09-10T03:48:40.125Z,80.00
2022-09-10T03:51:10.775Z,79.80
2022-09-10T03:53:38.673Z,79.40
2022-09-10T03:56:06.755Z,79.40
2022-09-10T03:58:35.800Z,79.90
2022-09-10T04:01:03.267Z,79.60
2022-09-10T04:03:31.989Z,79.40
2022-09-10T04:05:58.799Z,79.50
2022-09-10T04:08:25.667Z,80.10
2022-09-10T04:10:53.428Z,79.70
2022-09-10T04:13:20.069Z,79.90
2022-09-10T04:15:47.182Z,79.60
2022-09-10T04:18:14.208Z,79.40
2022-09-10T04:20:42.161Z,79.50
2022-09-10T04:23:10.619Z,80.00
2022-09-10T04:25:39.331Z,79.70
2022-09-10T04:28:06.132Z,80.10
2022-09-10T04:30:33.835Z,79.70
2022-09-10T04:33:00.993Z,80.00
2022-09-10T04:35:30.824Z,80.00
2022-09-10T04:37:58.752Z,80.20
2022-09-10T04:40:27.233Z,80.40
2022-09-10T04:42:54.282Z,80.60
2022-09-10T04:45:21.590Z,80.90
2022-09-10T04:47:49.425Z,81.10
2022-09-10T04:50:16.360Z,81.70
2022-09-10T04:53:02.998Z,82.70
2022-09-10T04:55:31.751Z,82.60
2022-09-10T04:57:58.506Z,83.30
2022-09-10T05:00:26.509Z,83.80
2022-09-10T05:02:53.547Z,84.10
2022-09-10T05:05:20.616Z,84.30
2022-09-10T05:07:49.019Z,85.30
2022-09-10T05:10:16.025Z,86.00
2022-09-10T05:12:43.680Z,86.50
2022-09-10T05:15:11.481Z,86.70
2022-09-10T05:17:38.175Z,87.00
2022-09-10T05:20:07.517Z,87.10
2022-09-10T05:22:40.795Z,87.40
2022-09-10T05:25:08.929Z,86.80
2022-09-10T05:27:36.303Z,86.60
2022-09-10T05:30:03.621Z,85.60
2022-09-10T05:32:32.681Z,85.80
2022-09-10T05:34:59.357Z,84.90
2022-09-10T05:37:26.849Z,85.60
2022-09-10T05:39:53.644Z,85.30
2022-09-10T05:42:22.189Z,85.60
2022-09-10T05:44:48.940Z,85.50
2022-09-10T05:47:15.630Z,84.70
2022-09-10T05:49:43.049Z,85.10
2022-09-10T05:52:09.701Z,85.10
2022-09-10T05:54:36.750Z,85.20
2022-09-10T05:57:03.648Z,85.10
2022-09-10T05:59:30.709Z,85.20
2022-09-10T06:01:58.085Z,85.60
2022-09-10T06:04:25.255Z,85.30
2022-09-10T06:06:52.350Z,85.30
2022-09-10T06:09:19.311Z,85.60
2022-09-10T06:11:57.129Z,85.20
2022-09-10T06:14:24.724Z,85.80
2022-09-10T06:16:52.941Z,85.30
2022-09-10T06:19:19.825Z,85.10
2022-09-10T06:21:49.425Z,85.40
2022-09-10T06:24:16.145Z,84.70
2022-09-10T06:26:44.000Z,85.60
2022-09-10T06:29:13.031Z,85.20
2022-09-10T06:31:40.948Z,84.30
2022-09-10T06:34:08.186Z,84.20
2022-09-10T06:36:35.097Z,84.10
2022-09-10T06:39:03.428Z,84.10
2022-09-10T06:41:37.426Z,83.90
2022-09-10T06:44:26.274Z,83.40
2022-09-10T06:47:39.378Z,84.40
2022-09-10T06:49:48.889Z,84.10
2022-09-10T06:52:16.145Z,83.70
2022-09-10T06:54:45.332Z,83.60
2022-09-10T06:57:38.298Z,83.80
2022-09-10T07:00:05.473Z,83.20
2022-09-10T07:02:33.024Z,83.10
2022-09-10T07:05:00.061Z,84.00
2022-09-10T07:07:27.020Z,83.40
2022-09-10T07:09:55.369Z,84.10
2022-09-10T07:12:22.941Z,83.40
2022-09-10T07:14:49.588Z,84.10
2022-09-10T07:17:16.731Z,83.90
2022-09-10T07:19:43.456Z,83.30
2022-09-10T07:22:25.194Z,84.00
2022-09-10T07:24:52.244Z,83.80
2022-09-10T07:27:30.777Z,83.70
2022-09-10T07:29:58.094Z,82.80
2022-09-10T07:32:25.060Z,83.60
2022-09-10T07:35:00.780Z,83.80
2022-09-10T07:37:29.736Z,84.60
2022-09-10T07:39:56.517Z,84.90
2022-09-10T07:42:25.273Z,84.20
2022-09-10T07:44:52.400Z,84.20
2022-09-10T07:47:19.272Z,83.90
2022-09-10T07:49:45.918Z,83.40
2022-09-10T07:52:13.515Z,83.00
2022-09-10T07:54:48.598Z,83.60
2022-09-10T07:57:15.521Z,83.30
2022-09-10T07:59:42.206Z,83.90
2022-09-10T08:02:15.599Z,82.90
2022-09-10T08:04:46.922Z,83.90
2022-09-10T08:07:17.168Z,83.80
2022-09-10T08:09:43.822Z,83.70
2022-09-10T08:12:16.679Z,82.80
2022-09-10T08:14:44.422Z,83.50
2022-09-10T08:17:11.197Z,84.10
2022-09-10T08:19:41.497Z,82.90
2022-09-10T08:22:13.452Z,83.40
2022-09-10T08:24:47.750Z,84.40
2022-09-10T08:27:16.247Z,84.00
2022-09-10T08:29:44.418Z,83.90
2022-09-10T08:32:14.059Z,84.90
2022-09-10T08:34:41.232Z,84.20
2022-09-10T08:37:09.937Z,84.30
2022-09-10T08:39:38.196Z,84.90
2022-09-10T08:42:20.451Z,84.90
2022-09-10T08:44:53.881Z,84.00
2022-09-10T08:48:06.557Z,84.30
2022-09-10T08:50:52.505Z,83.90
2022-09-10T08:53:40.851Z,84.30
2022-09-10T08:56:21.386Z,85.50
2022-09-10T08:59:03.139Z,85.40
2022-09-10T09:02:26.296Z,84.60
2022-09-10T09:05:13.956Z,85.00
2022-09-10T09:07:40.833Z,84.60
2022-09-10T09:10:33.697Z,84.30
2022-09-10T09:13:45.666Z,84.70
2022-09-10T09:16:36.868Z,84.80
2022-09-10T09:19:13.608Z,85.50
2022-09-10T09:21:50.991Z,84.80
2022-09-10T09:24:49.318Z,84.50
2022-09-10T09:27:20.041Z,85.60
2022-09-10T09:29:56.369Z,84.80
2022-09-10T09:32:24.859Z,86.30
2022-09-10T09:35:04.640Z,85.00
2022-09-10T09:37:33.074Z,84.90
2022-09-10T09:40:21.111Z,85.00
2022-09-10T09:43:09.528Z,85.40
2022-09-10T09:45:38.927Z,84.90
2022-09-10T09:48:07.389Z,84.80
2022-09-10T09:50:38.728Z,84.10
2022-09-10T09:53:05.369Z,84.50
2022-09-10T09:55:43.004Z,84.50
2022-09-10T09:58:21.842Z,83.30
2022-09-10T10:01:07.013Z,84.60
2022-09-10T10:03:50.289Z,83.80
2022-09-10T10:06:24.729Z,83.90
2022-09-10T10:09:26.702Z,83.70
2022-09-10T10:11:59.461Z,83.90
2022-09-10T10:14:39.187Z,83.60
2022-09-10T10:17:22.076Z,84.10
2022-09-10T10:20:12.537Z,84.20
2022-09-10T10:22:41.697Z,83.50
2022-09-10T10:25:34.125Z,84.40
2022-09-10T10:28:00.931Z,84.30
2022-09-10T10:30:30.009Z,83.80
2022-09-10T10:32:59.162Z,84.00
2022-09-10T10:35:42.781Z,83.00
2022-09-10T10:38:18.713Z,83.50
2022-09-10T10:40:48.865Z,83.10
2022-09-10T10:43:34.307Z,83.80
2022-09-10T10:46:08.689Z,83.40
2022-09-10T10:49:05.253Z,84.10
2022-09-10T10:51:50.121Z,83.30
2022-09-10T10:54:19.495Z,83.20
2022-09-10T10:56:59.849Z,84.20
2022-09-10T10:59:39.551Z,85.10
2022-09-10T11:02:17.152Z,84.60
2022-09-10T11:04:54.528Z,82.60
2022-09-10T11:07:40.967Z,82.90
2022-09-10T11:10:32.834Z,81.30
2022-09-10T11:13:22.215Z,82.50
2022-09-10T11:16:01.218Z,81.90
2022-09-10T11:18:34.238Z,81.40
2022-09-10T11:21:31.821Z,82.20
2022-09-10T11:24:24.733Z,80.50
2022-09-10T11:27:15.579Z,81.40
2022-09-10T11:30:03.864Z,81.30
2022-09-10T11:32:54.345Z,81.10
2022-09-10T11:35:39.808Z,79.70
2022-09-10T11:38:40.761Z,76.40
2022-09-10T11:41:24.424Z,76.80
2022-09-10T11:44:15.227Z,78.90
2022-09-10T11:46:54.605Z,75.90
2022-09-10T11:49:26.755Z,74.50
2022-09-10T11:51:53.474Z,73.80
2022-09-10T11:54:28.329Z,74.50
2022-09-10T11:58:04.969Z,73.40
2022-09-10T12:00:36.271Z,74.10
2022-09-10T12:03:21.159Z,72.30
2022-09-10T12:06:01.800Z,72.60
2022-09-10T12:08:59.841Z,72.90
2022-09-10T12:11:35.453Z,73.00
2022-09-10T12:14:07.955Z,72.30
2022-09-10T12:16:41.118Z,73.00
2022-09-10T12:19:29.561Z,72.30
2022-09-10T12:22:03.228Z,73.40
2022-09-10T12:24:38.698Z,73.30
2022-09-10T12:27:06.951Z,75.30
2022-09-10T12:29:40.736Z,74.50
2022-09-10T12:32:19.660Z,73.60
2022-09-10T12:34:49.701Z,73.10
2022-09-10T12:37:28.160Z,72.70
2022-09-10T12:40:25.977Z,72.50
2022-09-10T12:42:59.152Z,70.60
2022-09-10T12:46:03.884Z,71.90
2022-09-10T12:48:36.321Z,70.10
2022-09-10T12:51:16.807Z,70.90
2022-09-10T12:53:52.685Z,71.40
2022-09-10T12:56:57.456Z,70.70
2022-09-10T12:59:46.103Z,70.20
2022-09-10T13:02:35.994Z,73.30
2022-09-10T13:05:17.367Z,72.50
2022-09-10T13:07:45.152Z,71.20
2022-09-10T13:10:22.267Z,70.90
2022-09-10T13:12:55.227Z,71.70
2022-09-10T13:15:25.344Z,70.00
2022-09-10T13:17:51.962Z,70.30
2022-09-10T13:20:21.591Z,70.30
2022-09-10T13:23:06.374Z,69.10
2022-09-10T13:25:36.757Z,69.10
2022-09-10T13:28:29.763Z,69.20
2022-09-10T13:30:59.513Z,67.70
2022-09-10T13:33:30.114Z,67.30
2022-09-10T13:36:38.420Z,68.10
2022-09-10T13:39:46.111Z,65.10
2022-09-10T13:42:12.786Z,66.80
2022-09-10T13:45:04.383Z,64.80
2022-09-10T13:47:57.269Z,65.70
2022-09-10T13:50:34.535Z,66.10
2022-09-10T13:53:05.910Z,64.40
2022-09-10T13:55:34.052Z,65.40
2022-09-10T13:58:12.371Z,64.80
2022-09-10T14:00:48.701Z,64.00
2022-09-10T14:03:20.907Z,63.80
2022-09-10T14:06:01.641Z,63.90
2022-09-10T14:08:57.030Z,63.30
2022-09-10T14:11:26.314Z,62.90
2022-09-10T14:14:10.664Z,63.10
2022-09-10T14:16:51.533Z,62.40
2022-09-10T14:19:23.375Z,62.90
2022-09-10T14:21:51.758Z,63.60
2022-09-10T14:24:29.574Z,62.40
2022-09-10T14:27:15.552Z,62.80
2022-09-10T14:29:42.621Z,60.50
2022-09-10T14:32:38.806Z,62.90
2022-09-10T14:35:37.093Z,61.90
2022-09-10T14:38:24.286Z,62.00
2022-09-10T14:41:06.706Z,63.60
2022-09-10T14:43:38.334Z,62.70
2022-09-10T14:46:10.254Z,61.00
2022-09-10T14:48:59.013Z,61.20
2022-09-10T14:51:25.934Z,60.50
2022-09-10T14:53:57.349Z,60.80
2022-09-10T14:56:39.665Z,57.20
2022-09-10T14:59:16.899Z,57.90
2022-09-10T15:01:48.352Z,57.60
2022-09-10T15:04:23.510Z,55.20
2022-09-10T15:06:54.709Z,52.60
2022-09-10T15:09:21.805Z,50.80
2022-09-10T15:12:03.209Z,49.50
2022-09-10T15:14:30.115Z,47.80
2022-09-10T15:16:56.791Z,47.30
2022-09-10T15:19:23.628Z,48.20
2022-09-10T15:21:50.797Z,48.40
2022-09-10T15:24:20.353Z,50.50
2022-09-10T15:26:47.764Z,51.10
2022-09-10T15:29:15.749Z,55.20
2022-09-10T15:31:43.591Z,57.10
2022-09-10T15:34:11.486Z,58.10
2022-09-10T15:36:40.388Z,58.60
2022-09-10T15:39:11.047Z,57.50
2022-09-10T15:41:42.859Z,52.20
2022-09-10T15:44:10.025Z,51.50
2022-09-10T15:46:40.992Z,48.30
2022-09-10T15:49:08.145Z,48.20
2022-09-10T15:51:34.857Z,48.70
2022-09-10T15:54:04.910Z,47.90
2022-09-10T15:56:32.594Z,46.80
2022-09-10T15:58:59.414Z,45.60
2022-09-10T16:01:28.706Z,43.80
2022-09-10T16:03:57.956Z,45.40
2022-09-10T16:06:27.634Z,46.80
2022-09-10T16:08:57.025Z,47.80
2022-09-10T16:11:24.951Z,47.60
2022-09-10T16:13:51.668Z,47.10
2022-09-10T16:16:21.001Z,47.60
2022-09-10T16:18:49.057Z,48.80
2022-09-10T16:21:18.807Z,47.80
2022-09-10T16:23:47.046Z,49.40
2022-09-10T16:26:16.722Z,49.50
2022-09-10T16:28:54.442Z,50.50
2022-09-10T16:31:23.961Z,51.00
2022-09-10T16:33:54.862Z,50.10
2022-09-10T16:36:23.395Z,50.90
2022-09-10T16:38:55.663Z,52.00
2022-09-10T16:41:24.609Z,54.20
2022-09-10T16:43:52.160Z,56.30
2022-09-10T16:46:19.059Z,57.80
2022-09-10T16:48:45.838Z,57.60
2022-09-10T16:51:15.527Z,59.30
2022-09-10T16:53:44.293Z,59.80
2022-09-10T16:56:15.945Z,60.00
2022-09-10T16:58:47.082Z,61.10
2022-09-10T17:01:14.874Z,61.80
2022-09-10T17:03:46.247Z,62.70
2022-09-10T17:06:15.127Z,62.70
2022-09-10T17:08:43.009Z,63.10
2022-09-10T17:11:09.651Z,63.80
2022-09-10T17:13:36.292Z,65.00
2022-09-10T17:16:32.721Z,64.50
2022-09-10T17:19:14.165Z,64.30
2022-09-10T17:21:43.663Z,64.80
2022-09-10T17:24:12.478Z,65.00
2022-09-10T17:26:40.748Z,65.30
2022-09-10T17:29:15.848Z,65.20
2022-09-10T17:31:43.986Z,66.00
2022-09-10T17:34:14.355Z,65.20
2022-09-10T17:36:43.624Z,66.40
2022-09-10T17:39:11.005Z,66.50
2022-09-10T17:41:39.208Z,66.80
2022-09-10T17:44:06.677Z,67.00
2022-09-10T17:46:35.322Z,67.30
2022-09-10T17:49:02.380Z,67.50
2022-09-10T17:51:31.682Z,68.00
2022-09-10T17:53:58.404Z,67.70
2022-09-10T17:56:26.576Z,68.10
2022-09-10T17:58:58.412Z,67.60
2022-09-10T18:01:27.576Z,67.30
2022-09-10T18:03:54.862Z,67.70
2022-09-10T18:06:23.125Z,68.20
2022-09-10T18:08:51.360Z,69.00
2022-09-10T18:11:22.189Z,69.10
2022-09-10T18:13:51.941Z,68.90
2022-09-10T18:16:24.309Z,69.30
2022-09-10T18:18:53.855Z,69.50
2022-09-10T18:21:30.946Z,70.50
2022-09-10T18:24:04.774Z,70.50
2022-09-10T18:26:34.592Z,70.60
2022-09-10T18:29:03.600Z,70.50
2022-09-10T18:31:33.907Z,71.20
2022-09-10T18:34:01.664Z,72.00
2022-09-10T18:36:28.910Z,72.40
2022-09-10T18:38:55.628Z,72.90
2022-09-10T18:41:28.206Z,73.20
2022-09-10T18:43:57.236Z,73.20
2022-09-10T18:46:24.546Z,73.20
2022-09-10T18:48:51.929Z,72.90
2022-09-10T18:51:21.921Z,73.10
2022-09-10T18:53:52.389Z,73.50
2022-09-10T18:56:23.196Z,73.80
2022-09-10T18:58:55.676Z,73.90
2022-09-10T19:01:24.122Z,73.60
2022-09-10T19:03:51.191Z,73.90
2022-09-10T19:06:26.317Z,73.80
2022-09-10T19:08:55.508Z,73.90
2022-09-10T19:11:24.426Z,74.20
2022-09-10T19:13:56.177Z,73.90
2022-09-10T19:16:28.767Z,74.20
2022-09-10T19:18:56.251Z,74.00
2022-09-10T19:21:24.497Z,73.40
2022-09-10T19:23:55.178Z,73.40
2022-09-10T19:26:25.284Z,74.40
2022-09-10T19:28:52.302Z,74.10
2022-09-10T19:31:20.569Z,74.30
2022-09-10T19:33:47.992Z,74.60
2022-09-10T19:36:17.542Z,74.70
2022-09-10T19:38:46.020Z,74.10
2022-09-10T19:41:22.193Z,74.10
2022-09-10T19:43:51.063Z,74.50
2022-09-10T19:46:20.521Z,74.10
2022-09-10T19:48:48.930Z,74.20
2022-09-10T19:51:19.988Z,73.60
2022-09-10T19:53:47.777Z,73.80
2022-09-10T19:56:20.583Z,74.10
2022-09-10T19:58:52.102Z,73.90
2022-09-10T20:01:20.414Z,74.40
2022-09-10T20:03:55.983Z,74.40
2022-09-10T20:06:25.419Z,74.70
2022-09-10T20:08:52.479Z,75.70
2022-09-10T20:11:32.311Z,75.70
2022-09-10T20:14:02.261Z,75.40
2022-09-10T20:16:29.902Z,75.40
2022-09-10T20:18:56.719Z,75.50
2022-09-10T20:21:28.429Z,75.50
2022-09-10T20:23:56.229Z,75.20
2022-09-10T20:26:29.221Z,74.70
2022-09-10T20:29:07.593Z,74.50
2022-09-10T20:31:36.178Z,75.20
2022-09-10T20:34:06.386Z,74.80
2022-09-10T20:36:35.486Z,75.30
2022-09-10T20:39:02.429Z,74.70
2022-09-10T20:41:30.347Z,74.50
2022-09-10T20:43:59.555Z,74.70
2022-09-10T20:46:27.945Z,75.00
2022-09-10T20:48:56.751Z,75.50
2022-09-10T20:51:23.666Z,75.30
2022-09-10T20:53:50.386Z,76.20
2022-09-10T20:56:19.114Z,75.20
2022-09-10T20:58:46.747Z,75.90
2022-09-10T21:01:15.017Z,76.10
2022-09-10T21:03:41.738Z,76.40
2022-09-10T21:06:09.823Z,77.20
2022-09-10T21:08:38.040Z,78.10
2022-09-10T21:11:08.153Z,78.10
2022-09-10T21:13:36.249Z,79.50
2022-09-10T21:16:14.916Z,79.70
2022-09-10T21:18:42.423Z,80.60
2022-09-10T21:21:11.665Z,80.50
2022-09-10T21:23:46.663Z,81.00
2022-09-10T21:26:15.000Z,81.80
2022-09-10T21:28:42.397Z,82.00
2022-09-10T21:31:10.296Z,82.40
2022-09-10T21:33:37.010Z,83.10
2022-09-10T21:36:10.527Z,83.20
2022-09-10T21:38:38.149Z,83.80
2022-09-10T21:41:12.939Z,83.50
2022-09-10T21:43:43.580Z,83.20
2022-09-10T21:46:11.359Z,83.00
2022-09-10T21:48:39.829Z,83.70
2022-09-10T21:51:13.122Z,83.80
2022-09-10T21:53:41.381Z,82.80
2022-09-10T21:56:09.852Z,83.30
2022-09-10T21:58:37.205Z,83.10
2022-09-10T22:01:17.254Z,83.10
2022-09-10T22:03:46.566Z,83.10
2022-09-10T22:06:14.656Z,83.30
2022-09-10T22:08:43.743Z,83.60
2022-09-10T22:11:25.785Z,82.40
2022-09-10T22:13:54.575Z,83.00
2022-09-10T22:16:23.056Z,83.00
2022-09-10T22:18:50.474Z,83.60
2022-09-10T22:21:17.607Z,82.80
2022-09-10T22:23:44.585Z,83.20
2022-09-10T22:26:16.332Z,82.90
2022-09-10T22:28:44.479Z,82.10
2022-09-10T22:31:18.149Z,82.20
2022-09-10T22:33:49.825Z,81.70
2022-09-10T22:36:23.609Z,82.00
2022-09-10T22:38:52.178Z,81.90
2022-09-10T22:41:19.694Z,81.60
2022-09-10T22:43:46.436Z,81.50
2022-09-10T22:46:13.573Z,80.80
2022-09-10T22:48:42.549Z,81.10
2022-09-10T22:51:24.291Z,80.90
2022-09-10T22:53:53.033Z,81.00
2022-09-10T22:56:26.047Z,80.60
2022-09-10T22:58:54.054Z,80.90
2022-09-10T23:01:23.100Z,80.80
2022-09-10T23:03:50.234Z,80.60
2022-09-10T23:06:22.578Z,80.70
2022-09-10T23:08:51.895Z,80.30
2022-09-10T23:11:21.841Z,80.40
2022-09-10T23:13:50.922Z,80.60
2022-09-10T23:16:23.764Z,80.30
2022-09-10T23:18:53.181Z,80.70
2022-09-10T23:21:20.930Z,80.90
2022-09-10T23:23:49.924Z,80.50
2022-09-10T23:26:17.544Z,81.20
2022-09-10T23:28:45.172Z,81.30
2022-09-10T23:31:26.680Z,81.50
2022-09-10T23:34:09.931Z,81.30
2022-09-10T23:36:39.129Z,81.20
2022-09-10T23:39:08.758Z,80.90
2022-09-10T23:41:36.818Z,81.30
2022-09-10T23:44:03.788Z,81.30
2022-09-10T23:46:30.944Z,81.50
2022-09-10T23:48:57.670Z,81.80
2022-09-10T23:51:24.411Z,81.80
2022-09-10T23:53:51.057Z,81.30
2022-09-10T23:56:19.661Z,81.50
2022-09-10T23:58:46.457Z,81.60
